sensor_id;sensor_type;location;lat;lon;timestamp;P1;durP1;ratioP1;P2;durP2;ratioP2
46745;SDS011;32493;50.514;9.678;2023-08-01T00:00:00;8.07;;;3.70;;
46745;SDS011;32493;50.514;9.678;2023-08-01T00:02:12;6.97;;;3.17;;
46745;SDS011;32493;50.514;9.678;2023-08-01T00:04:18;7.85;;;4.38;;
46745;SDS011;32493;50.514;9.678;2023-08-01T00:06:23;8.73;;;4.25;;
46745;SDS011;32493;50.514;9.678;2023-08-01T00:08:33;7.00;;;4.38;;
46745;SDS011;32493;50.514;9.678;2023-08-01T00:10:41;8.18;;;3.78;;
46745;SDS011;32493;50.514;9.678;2023-08-01T00:12:47;8.38;;;3.97;;
46745;SDS011;32493;50.514;9.678;2023-08-01T00:14:55;5.90;;;2.67;;
46745;SDS011;32493;50.514;9.678;2023-08-01T00:17:01;9.13;;;3.65;;
46745;SDS011;32493;50.514;9.678;2023-08-01T00:19:08;6.22;;;3.80;;
46745;SDS011;32493;50.514;9.678;2023-08-01T00:21:15;9.20;;;4.30;;
46745;SDS011;32493;50.514;9.678;2023-08-01T00:23:21;6.28;;;3.17;;
46745;SDS011;32493;50.514;9.678;2023-08-01T00:25:27;8.48;;;4.00;;
46745;SDS011;32493;50.514;9.678;2023-08-01T00:27:38;9.20;;;4.05;;
46745;SDS011;32493;50.514;9.678;2023-08-01T00:29:46;7.68;;;3.17;;
46745;SDS011;32493;50.514;9.678;2023-08-01T00:31:55;5.25;;;2.75;;
46745;SDS011;32493;50.514;9.678;2023-08-01T00:34:01;5.82;;;3.10;;
46745;SDS011;32493;50.514;9.678;2023-08-01T00:36:07;6.95;;;3.38;;
46745;SDS011;32493;50.514;9.678;2023-08-01T00:38:13;5.55;;;3.17;;
46745;SDS011;32493;50.514;9.678;2023-08-01T00:40:21;5.05;;;2.53;;
46745;SDS011;32493;50.514;9.678;2023-08-01T00:44:42;6.65;;;2.72;;
46745;SDS011;32493;50.514;9.678;2023-08-01T00:46:50;5.43;;;2.92;;
46745;SDS011;32493;50.514;9.678;2023-08-01T00:48:59;6.63;;;3.22;;
46745;SDS011;32493;50.514;9.678;2023-08-01T00:51:05;5.30;;;2.10;;
46745;SDS011;32493;50.514;9.678;2023-08-01T00:53:13;6.60;;;3.00;;
46745;SDS011;32493;50.514;9.678;2023-08-01T00:55:19;5.72;;;2.78;;
46745;SDS011;32493;50.514;9.678;2023-08-01T00:57:30;7.65;;;2.70;;
46745;SDS011;32493;50.514;9.678;2023-08-01T00:59:37;2.70;;;1.50;;
46745;SDS011;32493;50.514;9.678;2023-08-01T01:01:43;5.32;;;2.70;;
46745;SDS011;32493;50.514;9.678;2023-08-01T01:03:49;7.80;;;2.20;;
46745;SDS011;32493;50.514;9.678;2023-08-01T01:06:01;4.30;;;2.58;;
46745;SDS011;32493;50.514;9.678;2023-08-01T01:08:13;6.00;;;2.42;;
46745;SDS011;32493;50.514;9.678;2023-08-01T01:10:20;5.13;;;2.65;;
46745;SDS011;32493;50.514;9.678;2023-08-01T01:12:27;10.10;;;3.22;;
46745;SDS011;32493;50.514;9.678;2023-08-01T01:14:31;4.88;;;2.88;;
46745;SDS011;32493;50.514;9.678;2023-08-01T01:16:37;4.60;;;2.35;;
46745;SDS011;32493;50.514;9.678;2023-08-01T01:18:44;9.30;;;3.15;;
46745;SDS011;32493;50.514;9.678;2023-08-01T01:20:52;4.35;;;2.60;;
46745;SDS011;32493;50.514;9.678;2023-08-01T01:22:58;4.28;;;2.33;;
46745;SDS011;32493;50.514;9.678;2023-08-01T01:25:05;3.85;;;2.20;;
46745;SDS011;32493;50.514;9.678;2023-08-01T01:27:13;4.45;;;2.22;;
46745;SDS011;32493;50.514;9.678;2023-08-01T01:29:22;5.18;;;2.38;;
46745;SDS011;32493;50.514;9.678;2023-08-01T01:31:28;1.93;;;1.13;;
46745;SDS011;32493;50.514;9.678;2023-08-01T01:33:39;3.58;;;2.45;;
46745;SDS011;32493;50.514;9.678;2023-08-01T01:35:45;5.30;;;2.25;;
46745;SDS011;32493;50.514;9.678;2023-08-01T01:37:57;3.15;;;2.08;;
46745;SDS011;32493;50.514;9.678;2023-08-01T01:40:06;3.90;;;2.00;;
46745;SDS011;32493;50.514;9.678;2023-08-01T01:42:12;4.03;;;2.08;;
46745;SDS011;32493;50.514;9.678;2023-08-01T01:44:18;3.92;;;2.15;;
46745;SDS011;32493;50.514;9.678;2023-08-01T01:46:23;2.97;;;1.63;;
46745;SDS011;32493;50.514;9.678;2023-08-01T01:48:30;3.05;;;1.40;;
46745;SDS011;32493;50.514;9.678;2023-08-01T01:50:40;4.82;;;1.80;;
46745;SDS011;32493;50.514;9.678;2023-08-01T01:52:46;2.92;;;1.80;;
46745;SDS011;32493;50.514;9.678;2023-08-01T01:54:55;3.17;;;1.58;;
46745;SDS011;32493;50.514;9.678;2023-08-01T01:57:02;3.35;;;1.50;;
46745;SDS011;32493;50.514;9.678;2023-08-01T01:59:08;3.97;;;1.80;;
46745;SDS011;32493;50.514;9.678;2023-08-01T02:01:14;3.85;;;2.17;;
46745;SDS011;32493;50.514;9.678;2023-08-01T02:03:20;2.67;;;1.63;;
46745;SDS011;32493;50.514;9.678;2023-08-01T02:05:27;4.25;;;1.80;;
46745;SDS011;32493;50.514;9.678;2023-08-01T02:07:36;4.80;;;2.00;;
46745;SDS011;32493;50.514;9.678;2023-08-01T02:09:44;4.65;;;2.00;;
46745;SDS011;32493;50.514;9.678;2023-08-01T02:11:53;3.10;;;1.90;;
46745;SDS011;32493;50.514;9.678;2023-08-01T02:13:59;3.05;;;1.80;;
46745;SDS011;32493;50.514;9.678;2023-08-01T02:16:03;4.13;;;1.88;;
46745;SDS011;32493;50.514;9.678;2023-08-01T02:18:09;2.65;;;1.63;;
46745;SDS011;32493;50.514;9.678;2023-08-01T02:20:17;3.63;;;1.48;;
46745;SDS011;32493;50.514;9.678;2023-08-01T02:22:27;2.92;;;0.93;;
46745;SDS011;32493;50.514;9.678;2023-08-01T02:24:33;2.45;;;1.23;;
46745;SDS011;32493;50.514;9.678;2023-08-01T02:26:39;3.40;;;1.35;;
46745;SDS011;32493;50.514;9.678;2023-08-01T02:28:49;1.52;;;1.08;;
46745;SDS011;32493;50.514;9.678;2023-08-01T02:30:56;2.75;;;1.02;;
46745;SDS011;32493;50.514;9.678;2023-08-01T02:33:01;2.95;;;1.23;;
46745;SDS011;32493;50.514;9.678;2023-08-01T02:35:08;2.38;;;1.20;;
46745;SDS011;32493;50.514;9.678;2023-08-01T02:37:15;2.15;;;1.13;;
46745;SDS011;32493;50.514;9.678;2023-08-01T02:39:24;3.00;;;1.60;;
46745;SDS011;32493;50.514;9.678;2023-08-01T02:41:31;5.22;;;1.60;;
46745;SDS011;32493;50.514;9.678;2023-08-01T02:43:34;2.42;;;1.50;;
46745;SDS011;32493;50.514;9.678;2023-08-01T02:45:44;4.22;;;1.80;;
46745;SDS011;32493;50.514;9.678;2023-08-01T02:47:49;4.13;;;1.52;;
46745;SDS011;32493;50.514;9.678;2023-08-01T02:49:59;3.15;;;1.92;;
46745;SDS011;32493;50.514;9.678;2023-08-01T02:52:28;3.85;;;2.15;;
46745;SDS011;32493;50.514;9.678;2023-08-01T02:54:38;3.75;;;2.28;;
46745;SDS011;32493;50.514;9.678;2023-08-01T02:56:44;5.50;;;2.40;;
46745;SDS011;32493;50.514;9.678;2023-08-01T02:58:50;3.00;;;1.92;;
46745;SDS011;32493;50.514;9.678;2023-08-01T03:01:05;4.55;;;1.88;;
46745;SDS011;32493;50.514;9.678;2023-08-01T03:03:14;3.75;;;1.88;;
46745;SDS011;32493;50.514;9.678;2023-08-01T03:07:28;3.15;;;1.88;;
46745;SDS011;32493;50.514;9.678;2023-08-01T03:11:41;2.97;;;1.90;;
46745;SDS011;32493;50.514;9.678;2023-08-01T03:13:49;4.07;;;2.35;;
46745;SDS011;32493;50.514;9.678;2023-08-01T03:15:55;5.13;;;2.40;;
46745;SDS011;32493;50.514;9.678;2023-08-01T03:18:04;5.00;;;2.58;;
46745;SDS011;32493;50.514;9.678;2023-08-01T03:20:10;5.53;;;2.58;;
46745;SDS011;32493;50.514;9.678;2023-08-01T03:22:22;4.35;;;2.45;;
46745;SDS011;32493;50.514;9.678;2023-08-01T03:24:28;4.22;;;2.67;;
46745;SDS011;32493;50.514;9.678;2023-08-01T03:26:35;5.80;;;3.10;;
46745;SDS011;32493;50.514;9.678;2023-08-01T03:28:45;7.00;;;2.67;;
46745;SDS011;32493;50.514;9.678;2023-08-01T03:30:55;4.38;;;1.60;;
46745;SDS011;32493;50.514;9.678;2023-08-01T03:33:04;4.40;;;2.75;;
46745;SDS011;32493;50.514;9.678;2023-08-01T03:35:11;3.63;;;2.17;;
46745;SDS011;32493;50.514;9.678;2023-08-01T03:37:19;4.25;;;2.35;;
46745;SDS011;32493;50.514;9.678;2023-08-01T03:39:29;4.68;;;2.20;;
46745;SDS011;32493;50.514;9.678;2023-08-01T03:41:35;4.18;;;2.13;;
46745;SDS011;32493;50.514;9.678;2023-08-01T03:43:43;4.25;;;2.08;;
46745;SDS011;32493;50.514;9.678;2023-08-01T03:45:49;4.25;;;2.22;;
46745;SDS011;32493;50.514;9.678;2023-08-01T03:47:55;4.50;;;1.90;;
46745;SDS011;32493;50.514;9.678;2023-08-01T03:50:07;3.35;;;1.70;;
46745;SDS011;32493;50.514;9.678;2023-08-01T03:52:17;5.13;;;2.15;;
46745;SDS011;32493;50.514;9.678;2023-08-01T03:54:23;10.02;;;2.20;;
46745;SDS011;32493;50.514;9.678;2023-08-01T03:56:29;4.70;;;1.80;;
46745;SDS011;32493;50.514;9.678;2023-08-01T03:58:36;4.65;;;2.22;;
46745;SDS011;32493;50.514;9.678;2023-08-01T04:00:43;4.53;;;2.20;;
46745;SDS011;32493;50.514;9.678;2023-08-01T04:02:47;7.68;;;2.75;;
46745;SDS011;32493;50.514;9.678;2023-08-01T04:04:53;6.85;;;2.33;;
46745;SDS011;32493;50.514;9.678;2023-08-01T04:07:02;4.80;;;2.47;;
46745;SDS011;32493;50.514;9.678;2023-08-01T04:09:07;5.30;;;2.30;;
46745;SDS011;32493;50.514;9.678;2023-08-01T04:11:11;5.70;;;2.63;;
46745;SDS011;32493;50.514;9.678;2023-08-01T04:13:18;3.70;;;1.92;;
46745;SDS011;32493;50.514;9.678;2023-08-01T04:15:27;4.63;;;2.13;;
46745;SDS011;32493;50.514;9.678;2023-08-01T04:17:34;3.72;;;2.30;;
46745;SDS011;32493;50.514;9.678;2023-08-01T04:19:43;3.83;;;1.98;;
46745;SDS011;32493;50.514;9.678;2023-08-01T04:21:46;3.53;;;1.75;;
46745;SDS011;32493;50.514;9.678;2023-08-01T04:23:55;2.53;;;1.40;;
46745;SDS011;32493;50.514;9.678;2023-08-01T04:26:02;3.92;;;1.95;;
46745;SDS011;32493;50.514;9.678;2023-08-01T04:28:08;3.13;;;1.55;;
46745;SDS011;32493;50.514;9.678;2023-08-01T04:30:16;3.42;;;1.85;;
46745;SDS011;32493;50.514;9.678;2023-08-01T04:32:23;3.80;;;1.58;;
46745;SDS011;32493;50.514;9.678;2023-08-01T04:34:29;3.95;;;1.60;;
46745;SDS011;32493;50.514;9.678;2023-08-01T04:36:35;3.88;;;1.40;;
46745;SDS011;32493;50.514;9.678;2023-08-01T04:38:41;3.40;;;1.63;;
46745;SDS011;32493;50.514;9.678;2023-08-01T04:40:51;5.47;;;1.30;;
46745;SDS011;32493;50.514;9.678;2023-08-01T04:42:58;2.67;;;1.17;;
46745;SDS011;32493;50.514;9.678;2023-08-01T04:45:06;4.67;;;1.33;;
46745;SDS011;32493;50.514;9.678;2023-08-01T04:47:10;2.15;;;1.30;;
46745;SDS011;32493;50.514;9.678;2023-08-01T04:49:19;1.80;;;1.38;;
46745;SDS011;32493;50.514;9.678;2023-08-01T04:51:25;2.45;;;1.40;;
46745;SDS011;32493;50.514;9.678;2023-08-01T04:53:34;2.65;;;1.35;;
46745;SDS011;32493;50.514;9.678;2023-08-01T04:55:42;2.20;;;1.45;;
46745;SDS011;32493;50.514;9.678;2023-08-01T04:57:50;2.20;;;1.38;;
46745;SDS011;32493;50.514;9.678;2023-08-01T05:00:15;2.05;;;0.90;;
46745;SDS011;32493;50.514;9.678;2023-08-01T05:02:21;3.05;;;1.30;;
46745;SDS011;32493;50.514;9.678;2023-08-01T05:04:28;3.15;;;1.58;;
46745;SDS011;32493;50.514;9.678;2023-08-01T05:06:36;2.25;;;1.17;;
46745;SDS011;32493;50.514;9.678;2023-08-01T05:08:44;1.50;;;0.90;;
46745;SDS011;32493;50.514;9.678;2023-08-01T05:10:52;2.72;;;1.35;;
46745;SDS011;32493;50.514;9.678;2023-08-01T05:13:01;1.48;;;1.05;;
46745;SDS011;32493;50.514;9.678;2023-08-01T05:15:08;2.17;;;1.10;;
46745;SDS011;32493;50.514;9.678;2023-08-01T05:17:14;2.80;;;1.48;;
46745;SDS011;32493;50.514;9.678;2023-08-01T05:19:21;1.77;;;1.00;;
46745;SDS011;32493;50.514;9.678;2023-08-01T05:21:27;1.70;;;1.30;;
46745;SDS011;32493;50.514;9.678;2023-08-01T05:23:35;2.13;;;0.90;;
46745;SDS011;32493;50.514;9.678;2023-08-01T05:25:43;1.52;;;0.98;;
46745;SDS011;32493;50.514;9.678;2023-08-01T05:27:50;2.42;;;1.17;;
46745;SDS011;32493;50.514;9.678;2023-08-01T05:30:01;2.15;;;1.10;;
46745;SDS011;32493;50.514;9.678;2023-08-01T05:32:09;2.30;;;1.08;;
46745;SDS011;32493;50.514;9.678;2023-08-01T05:34:15;2.08;;;0.80;;
46745;SDS011;32493;50.514;9.678;2023-08-01T05:36:21;0.70;;;0.70;;
46745;SDS011;32493;50.514;9.678;2023-08-01T05:38:28;1.67;;;0.90;;
46745;SDS011;32493;50.514;9.678;2023-08-01T05:40:39;1.63;;;0.60;;
46745;SDS011;32493;50.514;9.678;2023-08-01T05:42:45;1.40;;;0.82;;
46745;SDS011;32493;50.514;9.678;2023-08-01T05:44:51;1.10;;;0.80;;
46745;SDS011;32493;50.514;9.678;2023-08-01T05:47:02;2.28;;;0.80;;
46745;SDS011;32493;50.514;9.678;2023-08-01T05:49:08;3.28;;;0.93;;
46745;SDS011;32493;50.514;9.678;2023-08-01T05:51:14;2.63;;;0.73;;
46745;SDS011;32493;50.514;9.678;2023-08-01T05:53:26;2.15;;;0.82;;
46745;SDS011;32493;50.514;9.678;2023-08-01T05:55:33;1.60;;;0.70;;
46745;SDS011;32493;50.514;9.678;2023-08-01T05:57:38;2.33;;;1.10;;
46745;SDS011;32493;50.514;9.678;2023-08-01T05:59:44;1.27;;;0.90;;
46745;SDS011;32493;50.514;9.678;2023-08-01T06:01:50;2.22;;;1.30;;
46745;SDS011;32493;50.514;9.678;2023-08-01T06:03:58;3.97;;;1.70;;
46745;SDS011;32493;50.514;9.678;2023-08-01T06:06:04;2.50;;;1.27;;
46745;SDS011;32493;50.514;9.678;2023-08-01T06:08:10;2.15;;;0.85;;
46745;SDS011;32493;50.514;9.678;2023-08-01T06:12:25;2.08;;;1.20;;
46745;SDS011;32493;50.514;9.678;2023-08-01T06:14:31;2.60;;;1.05;;
46745;SDS011;32493;50.514;9.678;2023-08-01T06:16:37;3.17;;;1.17;;
46745;SDS011;32493;50.514;9.678;2023-08-01T06:18:44;2.97;;;1.13;;
46745;SDS011;32493;50.514;9.678;2023-08-01T06:20:54;2.65;;;1.40;;
46745;SDS011;32493;50.514;9.678;2023-08-01T06:23:00;1.98;;;1.08;;
46745;SDS011;32493;50.514;9.678;2023-08-01T06:25:07;2.03;;;0.93;;
46745;SDS011;32493;50.514;9.678;2023-08-01T06:27:15;3.13;;;1.17;;
46745;SDS011;32493;50.514;9.678;2023-08-01T06:29:21;1.60;;;0.95;;
46745;SDS011;32493;50.514;9.678;2023-08-01T06:31:27;2.28;;;1.00;;
46745;SDS011;32493;50.514;9.678;2023-08-01T06:33:34;2.00;;;1.20;;
46745;SDS011;32493;50.514;9.678;2023-08-01T06:35:45;1.73;;;1.00;;
46745;SDS011;32493;50.514;9.678;2023-08-01T06:37:58;1.30;;;0.77;;
46745;SDS011;32493;50.514;9.678;2023-08-01T06:40:06;2.63;;;1.00;;
46745;SDS011;32493;50.514;9.678;2023-08-01T06:42:15;6.25;;;1.10;;
46745;SDS011;32493;50.514;9.678;2023-08-01T06:44:20;2.22;;;1.20;;
46745;SDS011;32493;50.514;9.678;2023-08-01T06:46:26;1.27;;;1.00;;
46745;SDS011;32493;50.514;9.678;2023-08-01T06:48:34;2.65;;;0.90;;
46745;SDS011;32493;50.514;9.678;2023-08-01T06:50:43;1.38;;;0.90;;
46745;SDS011;32493;50.514;9.678;2023-08-01T06:52:49;1.83;;;0.90;;
46745;SDS011;32493;50.514;9.678;2023-08-01T06:54:59;0.98;;;0.60;;
46745;SDS011;32493;50.514;9.678;2023-08-01T06:57:06;0.63;;;0.32;;
46745;SDS011;32493;50.514;9.678;2023-08-01T06:59:12;1.58;;;0.90;;
46745;SDS011;32493;50.514;9.678;2023-08-01T07:01:17;1.80;;;0.80;;
46745;SDS011;32493;50.514;9.678;2023-08-01T07:03:25;1.10;;;0.60;;
46745;SDS011;32493;50.514;9.678;2023-08-01T07:05:36;1.05;;;0.60;;
46745;SDS011;32493;50.514;9.678;2023-08-01T07:07:43;1.27;;;1.00;;
46745;SDS011;32493;50.514;9.678;2023-08-01T07:09:48;1.40;;;0.90;;
46745;SDS011;32493;50.514;9.678;2023-08-01T07:11:57;1.48;;;0.90;;
46745;SDS011;32493;50.514;9.678;2023-08-01T07:14:02;1.08;;;0.75;;
46745;SDS011;32493;50.514;9.678;2023-08-01T07:16:08;2.15;;;0.80;;
46745;SDS011;32493;50.514;9.678;2023-08-01T07:18:17;1.92;;;1.00;;
46745;SDS011;32493;50.514;9.678;2023-08-01T07:20:31;1.55;;;1.23;;
46745;SDS011;32493;50.514;9.678;2023-08-01T07:22:37;1.13;;;0.85;;
46745;SDS011;32493;50.514;9.678;2023-08-01T07:24:43;1.90;;;0.70;;
46745;SDS011;32493;50.514;9.678;2023-08-01T07:28:59;0.57;;;0.40;;
46745;SDS011;32493;50.514;9.678;2023-08-01T07:31:05;1.02;;;0.43;;
46745;SDS011;32493;50.514;9.678;2023-08-01T07:33:13;1.20;;;0.90;;
46745;SDS011;32493;50.514;9.678;2023-08-01T07:35:22;1.20;;;1.10;;
46745;SDS011;32493;50.514;9.678;2023-08-01T07:37:30;2.00;;;1.80;;
46745;SDS011;32493;50.514;9.678;2023-08-01T07:39:39;2.15;;;1.92;;
46745;SDS011;32493;50.514;9.678;2023-08-01T07:41:45;3.15;;;2.83;;
46745;SDS011;32493;50.514;9.678;2023-08-01T07:43:51;3.70;;;3.00;;
46745;SDS011;32493;50.514;9.678;2023-08-01T07:46:03;3.05;;;2.80;;
46745;SDS011;32493;50.514;9.678;2023-08-01T07:48:10;3.65;;;3.28;;
46745;SDS011;32493;50.514;9.678;2023-08-01T07:50:19;2.80;;;2.60;;
46745;SDS011;32493;50.514;9.678;2023-08-01T07:52:26;4.68;;;2.92;;
46745;SDS011;32493;50.514;9.678;2023-08-01T07:54:32;3.05;;;2.40;;
46745;SDS011;32493;50.514;9.678;2023-08-01T07:56:38;2.55;;;2.30;;
46745;SDS011;32493;50.514;9.678;2023-08-01T07:58:52;2.60;;;2.33;;
46745;SDS011;32493;50.514;9.678;2023-08-01T08:01:04;5.10;;;3.45;;
46745;SDS011;32493;50.514;9.678;2023-08-01T08:03:16;2.33;;;1.60;;
46745;SDS011;32493;50.514;9.678;2023-08-01T08:05:24;2.70;;;1.90;;
46745;SDS011;32493;50.514;9.678;2023-08-01T08:07:35;3.55;;;2.22;;
46745;SDS011;32493;50.514;9.678;2023-08-01T08:09:43;3.65;;;2.00;;
46745;SDS011;32493;50.514;9.678;2023-08-01T08:11:50;2.42;;;2.20;;
46745;SDS011;32493;50.514;9.678;2023-08-01T08:13:55;3.63;;;2.50;;
46745;SDS011;32493;50.514;9.678;2023-08-01T08:16:04;3.03;;;2.50;;
46745;SDS011;32493;50.514;9.678;2023-08-01T08:18:10;2.58;;;2.38;;
46745;SDS011;32493;50.514;9.678;2023-08-01T08:20:39;2.38;;;2.05;;
46745;SDS011;32493;50.514;9.678;2023-08-01T08:22:48;2.67;;;2.47;;
46745;SDS011;32493;50.514;9.678;2023-08-01T08:24:55;3.40;;;2.20;;
46745;SDS011;32493;50.514;9.678;2023-08-01T08:27:01;2.28;;;2.08;;
46745;SDS011;32493;50.514;9.678;2023-08-01T08:29:08;2.40;;;2.20;;
46745;SDS011;32493;50.514;9.678;2023-08-01T08:31:17;3.17;;;2.40;;
46745;SDS011;32493;50.514;9.678;2023-08-01T08:33:22;3.67;;;2.30;;
46745;SDS011;32493;50.514;9.678;2023-08-01T08:35:31;3.72;;;2.63;;
46745;SDS011;32493;50.514;9.678;2023-08-01T08:37:39;2.78;;;2.28;;
46745;SDS011;32493;50.514;9.678;2023-08-01T08:39:46;3.33;;;2.45;;
46745;SDS011;32493;50.514;9.678;2023-08-01T08:41:53;2.20;;;2.00;;
46745;SDS011;32493;50.514;9.678;2023-08-01T08:43:59;3.92;;;2.40;;
46745;SDS011;32493;50.514;9.678;2023-08-01T08:46:07;2.45;;;2.25;;
46745;SDS011;32493;50.514;9.678;2023-08-01T08:48:19;3.22;;;2.33;;
46745;SDS011;32493;50.514;9.678;2023-08-01T08:50:26;3.95;;;2.58;;
46745;SDS011;32493;50.514;9.678;2023-08-01T08:52:36;3.65;;;2.92;;
46745;SDS011;32493;50.514;9.678;2023-08-01T08:54:44;4.07;;;3.08;;
46745;SDS011;32493;50.514;9.678;2023-08-01T08:56:54;3.58;;;3.00;;
46745;SDS011;32493;50.514;9.678;2023-08-01T08:58:57;3.50;;;3.08;;
46745;SDS011;32493;50.514;9.678;2023-08-01T09:01:05;3.88;;;2.90;;
46745;SDS011;32493;50.514;9.678;2023-08-01T09:03:11;3.58;;;2.90;;
46745;SDS011;32493;50.514;9.678;2023-08-01T09:05:20;2.63;;;1.90;;
46745;SDS011;32493;50.514;9.678;2023-08-01T09:07:31;3.70;;;2.88;;
46745;SDS011;32493;50.514;9.678;2023-08-01T09:09:46;3.72;;;3.10;;
46745;SDS011;32493;50.514;9.678;2023-08-01T09:11:52;3.53;;;3.22;;
46745;SDS011;32493;50.514;9.678;2023-08-01T09:13:59;2.50;;;2.20;;
46745;SDS011;32493;50.514;9.678;2023-08-01T09:16:04;4.28;;;3.10;;
46745;SDS011;32493;50.514;9.678;2023-08-01T09:18:13;7.32;;;2.92;;
46745;SDS011;32493;50.514;9.678;2023-08-01T09:20:23;3.30;;;2.75;;
46745;SDS011;32493;50.514;9.678;2023-08-01T09:22:29;4.40;;;2.72;;
46745;SDS011;32493;50.514;9.678;2023-08-01T09:24:52;4.05;;;3.25;;
46745;SDS011;32493;50.514;9.678;2023-08-01T09:27:03;4.00;;;3.03;;
46745;SDS011;32493;50.514;9.678;2023-08-01T09:31:25;4.20;;;3.00;;
46745;SDS011;32493;50.514;9.678;2023-08-01T09:33:37;4.25;;;3.85;;
46745;SDS011;32493;50.514;9.678;2023-08-01T09:35:48;4.47;;;3.97;;
46745;SDS011;32493;50.514;9.678;2023-08-01T09:38:00;4.22;;;3.65;;
46745;SDS011;32493;50.514;9.678;2023-08-01T09:40:09;4.75;;;3.67;;
46745;SDS011;32493;50.514;9.678;2023-08-01T09:42:16;9.98;;;4.55;;
46745;SDS011;32493;50.514;9.678;2023-08-01T09:44:22;6.20;;;4.35;;
46745;SDS011;32493;50.514;9.678;2023-08-01T09:46:25;5.93;;;5.00;;
46745;SDS011;32493;50.514;9.678;2023-08-01T09:48:31;6.93;;;4.25;;
46745;SDS011;32493;50.514;9.678;2023-08-01T09:50:37;5.75;;;4.43;;
46745;SDS011;32493;50.514;9.678;2023-08-01T09:52:46;4.95;;;3.20;;
46745;SDS011;32493;50.514;9.678;2023-08-01T09:54:55;5.20;;;4.28;;
46745;SDS011;32493;50.514;9.678;2023-08-01T09:57:01;4.75;;;3.25;;
46745;SDS011;32493;50.514;9.678;2023-08-01T09:59:08;6.10;;;3.20;;
46745;SDS011;32493;50.514;9.678;2023-08-01T10:01:18;7.07;;;3.50;;
46745;SDS011;32493;50.514;9.678;2023-08-01T10:05:33;4.32;;;2.95;;
46745;SDS011;32493;50.514;9.678;2023-08-01T10:07:49;3.38;;;2.20;;
46745;SDS011;32493;50.514;9.678;2023-08-01T10:10:00;5.43;;;2.80;;
46745;SDS011;32493;50.514;9.678;2023-08-01T10:12:12;4.57;;;2.13;;
46745;SDS011;32493;50.514;9.678;2023-08-01T10:14:19;4.22;;;2.53;;
46745;SDS011;32493;50.514;9.678;2023-08-01T10:18:38;5.90;;;2.60;;
46745;SDS011;32493;50.514;9.678;2023-08-01T10:20:45;2.63;;;1.60;;
46745;SDS011;32493;50.514;9.678;2023-08-01T10:22:54;3.05;;;1.70;;
46745;SDS011;32493;50.514;9.678;2023-08-01T10:25:01;6.95;;;2.42;;
46745;SDS011;32493;50.514;9.678;2023-08-01T10:27:12;3.08;;;2.00;;
46745;SDS011;32493;50.514;9.678;2023-08-01T10:29:18;5.80;;;2.00;;
46745;SDS011;32493;50.514;9.678;2023-08-01T10:31:24;2.47;;;1.75;;
46745;SDS011;32493;50.514;9.678;2023-08-01T10:33:32;4.28;;;2.35;;
46745;SDS011;32493;50.514;9.678;2023-08-01T10:35:37;2.65;;;1.85;;
46745;SDS011;32493;50.514;9.678;2023-08-01T10:37:45;3.20;;;2.30;;
46745;SDS011;32493;50.514;9.678;2023-08-01T10:39:59;6.45;;;2.22;;
46745;SDS011;32493;50.514;9.678;2023-08-01T10:42:05;2.72;;;1.70;;
46745;SDS011;32493;50.514;9.678;2023-08-01T10:44:14;3.63;;;1.70;;
46745;SDS011;32493;50.514;9.678;2023-08-01T10:46:21;4.88;;;1.50;;
46745;SDS011;32493;50.514;9.678;2023-08-01T10:48:30;4.40;;;1.70;;
46745;SDS011;32493;50.514;9.678;2023-08-01T10:50:36;2.22;;;1.05;;
46745;SDS011;32493;50.514;9.678;2023-08-01T10:52:42;2.25;;;1.10;;
46745;SDS011;32493;50.514;9.678;2023-08-01T10:54:55;4.20;;;1.60;;
46745;SDS011;32493;50.514;9.678;2023-08-01T10:57:07;2.28;;;1.35;;
46745;SDS011;32493;50.514;9.678;2023-08-01T10:59:20;3.40;;;1.40;;
46745;SDS011;32493;50.514;9.678;2023-08-01T11:01:26;1.95;;;1.02;;
46745;SDS011;32493;50.514;9.678;2023-08-01T11:03:34;2.85;;;1.48;;
46745;SDS011;32493;50.514;9.678;2023-08-01T11:05:40;2.55;;;1.70;;
46745;SDS011;32493;50.514;9.678;2023-08-01T11:07:53;3.15;;;1.65;;
46745;SDS011;32493;50.514;9.678;2023-08-01T11:10:08;6.20;;;1.75;;
46745;SDS011;32493;50.514;9.678;2023-08-01T11:12:15;3.28;;;1.50;;
46745;SDS011;32493;50.514;9.678;2023-08-01T11:14:22;2.60;;;1.38;;
46745;SDS011;32493;50.514;9.678;2023-08-01T11:16:32;4.88;;;2.10;;
46745;SDS011;32493;50.514;9.678;2023-08-01T11:18:41;2.10;;;1.20;;
46745;SDS011;32493;50.514;9.678;2023-08-01T11:20:48;3.15;;;1.60;;
46745;SDS011;32493;50.514;9.678;2023-08-01T11:22:54;2.95;;;1.75;;
46745;SDS011;32493;50.514;9.678;2023-08-01T11:25:03;3.92;;;1.63;;
46745;SDS011;32493;50.514;9.678;2023-08-01T11:27:12;4.35;;;1.45;;
46745;SDS011;32493;50.514;9.678;2023-08-01T11:29:18;2.67;;;1.65;;
46745;SDS011;32493;50.514;9.678;2023-08-01T11:31:25;4.05;;;1.63;;
46745;SDS011;32493;50.514;9.678;2023-08-01T11:33:33;3.17;;;1.35;;
46745;SDS011;32493;50.514;9.678;2023-08-01T11:35:38;3.80;;;1.45;;
46745;SDS011;32493;50.514;9.678;2023-08-01T11:37:49;2.88;;;1.10;;
46745;SDS011;32493;50.514;9.678;2023-08-01T11:39:58;1.92;;;1.52;;
46745;SDS011;32493;50.514;9.678;2023-08-01T11:42:07;3.05;;;1.33;;
46745;SDS011;32493;50.514;9.678;2023-08-01T11:44:23;3.05;;;1.50;;
46745;SDS011;32493;50.514;9.678;2023-08-01T11:46:30;5.43;;;1.35;;
46745;SDS011;32493;50.514;9.678;2023-08-01T11:48:38;3.42;;;1.40;;
46745;SDS011;32493;50.514;9.678;2023-08-01T11:50:49;3.38;;;1.48;;
46745;SDS011;32493;50.514;9.678;2023-08-01T11:53:01;2.75;;;1.45;;
46745;SDS011;32493;50.514;9.678;2023-08-01T11:55:07;1.80;;;1.13;;
46745;SDS011;32493;50.514;9.678;2023-08-01T11:57:26;2.17;;;1.30;;
46745;SDS011;32493;50.514;9.678;2023-08-01T11:59:32;3.97;;;2.10;;
46745;SDS011;32493;50.514;9.678;2023-08-01T12:01:37;4.93;;;1.40;;
46745;SDS011;32493;50.514;9.678;2023-08-01T12:03:44;2.47;;;1.55;;
46745;SDS011;32493;50.514;9.678;2023-08-01T12:08:10;5.82;;;1.75;;
46745;SDS011;32493;50.514;9.678;2023-08-01T12:10:18;4.22;;;1.38;;
46745;SDS011;32493;50.514;9.678;2023-08-01T12:12:28;2.70;;;1.38;;
46745;SDS011;32493;50.514;9.678;2023-08-01T12:14:38;1.85;;;1.02;;
46745;SDS011;32493;50.514;9.678;2023-08-01T12:16:44;2.17;;;1.10;;
46745;SDS011;32493;50.514;9.678;2023-08-01T12:18:55;1.27;;;1.00;;
46745;SDS011;32493;50.514;9.678;2023-08-01T12:21:02;2.20;;;1.25;;
46745;SDS011;32493;50.514;9.678;2023-08-01T12:23:08;2.63;;;1.40;;
46745;SDS011;32493;50.514;9.678;2023-08-01T12:25:14;3.25;;;1.50;;
46745;SDS011;32493;50.514;9.678;2023-08-01T12:27:22;2.55;;;1.50;;
46745;SDS011;32493;50.514;9.678;2023-08-01T12:29:36;3.07;;;1.30;;
46745;SDS011;32493;50.514;9.678;2023-08-01T12:31:42;2.45;;;1.77;;
46745;SDS011;32493;50.514;9.678;2023-08-01T12:33:48;4.82;;;1.48;;
46745;SDS011;32493;50.514;9.678;2023-08-01T12:35:55;4.20;;;1.70;;
46745;SDS011;32493;50.514;9.678;2023-08-01T12:38:01;2.80;;;1.25;;
46745;SDS011;32493;50.514;9.678;2023-08-01T12:40:09;2.00;;;1.30;;
46745;SDS011;32493;50.514;9.678;2023-08-01T12:42:20;3.42;;;1.40;;
46745;SDS011;32493;50.514;9.678;2023-08-01T12:44:28;9.57;;;1.75;;
46745;SDS011;32493;50.514;9.678;2023-08-01T12:46:34;2.90;;;1.60;;
46745;SDS011;32493;50.514;9.678;2023-08-01T12:48:41;4.85;;;1.88;;
46745;SDS011;32493;50.514;9.678;2023-08-01T12:50:49;1.80;;;1.40;;
46745;SDS011;32493;50.514;9.678;2023-08-01T12:52:51;5.28;;;1.70;;
46745;SDS011;32493;50.514;9.678;2023-08-01T12:54:57;1.50;;;0.77;;
46745;SDS011;32493;50.514;9.678;2023-08-01T12:57:03;1.65;;;0.93;;
46745;SDS011;32493;50.514;9.678;2023-08-01T12:59:10;2.13;;;1.50;;
46745;SDS011;32493;50.514;9.678;2023-08-01T13:01:21;3.75;;;1.70;;
46745;SDS011;32493;50.514;9.678;2023-08-01T13:03:26;2.85;;;1.60;;
46745;SDS011;32493;50.514;9.678;2023-08-01T13:05:33;2.45;;;1.30;;
46745;SDS011;32493;50.514;9.678;2023-08-01T13:07:39;4.82;;;1.63;;
46745;SDS011;32493;50.514;9.678;2023-08-01T13:09:45;3.70;;;1.92;;